Time;durP1;ratioP1;P1;durP2;ratioP2;P2;SDS_P1;SDS_P2;PMS_P1;PMS_P2;Temp;Humidity;BMP_temperature;BMP_pressure;BME280_temperature;BME280_humidity;BME280_pressure;Samples;Min_cycle;Max_cycle;Signal;HPM_P1;HPM_P2
2022/09/11 14:33:21;;;;;;;5.57;2.40;;;;;;;;;;7342929;19;20457;-82
2022/09/11 14:35:47;;;;;;;4.75;2.42;;;;;;;;;;7335535;19;20006;-81
2022/09/11 14:38:13;;;;;;;5.95;2.60;;;;;;;;;;7348918;19;20021;-81
2022/09/11 14:40:45;;;;;;;8.13;2.45;;;;;;;;;;7360695;19;20014;-81
2022/09/11 14:43:10;;;;;;;5.55;2.85;;;;;;;;;;7334554;19;20487;-81
2022/09/11 14:45:35;;;;;;;7.03;2.95;;;;;;;;;;7366281;19;20014;-80
2022/09/11 14:48:01;;;;;;;5.87;2.43;;;;;;;;;;7368563;19;20074;-80
2022/09/11 14:50:26;;;;;;;7.53;2.80;;;;;;;;;;7364904;19;20006;-81
2022/09/11 14:52:51;;;;;;;6.40;3.30;;;;;;;;;;7350915;19;20446;-80
2022/09/11 14:55:17;;;;;;;4.77;2.80;;;;;;;;;;7375765;19;21481;-80
2022/09/11 14:57:45;;;;;;;10.98;3.85;;;;;;;;;;7359684;19;20388;-81
2022/09/11 15:00:12;;;;;;;7.72;2.88;;;;;;;;;;7366838;19;20014;-80
2022/09/11 15:02:38;;;;;;;11.23;3.47;;;;;;;;;;7354276;19;20002;-81
2022/09/11 15:05:05;;;;;;;7.90;2.78;;;;;;;;;;7352571;19;20501;-80
2022/09/11 15:07:30;;;;;;;10.27;3.50;;;;;;;;;;7361772;19;20007;-79
2022/09/11 15:09:55;;;;;;;5.70;2.67;;;;;;;;;;7367064;19;20019;-79
2022/09/11 15:12:21;;;;;;;8.75;3.00;;;;;;;;;;7370669;19;20617;-80
2022/09/11 15:14:46;;;;;;;5.97;2.72;;;;;;;;;;7369462;19;20014;-80
2022/09/11 15:17:16;;;;;;;5.15;2.50;;;;;;;;;;7373611;19;20014;-80
2022/09/11 15:19:44;;;;;;;6.88;3.10;;;;;;;;;;7352316;19;20003;-80
2022/09/11 15:22:10;;;;;;;6.07;2.78;;;;;;;;;;7352451;19;20003;-81
2022/09/11 15:24:35;;;;;;;11.38;3.50;;;;;;;;;;7369478;19;20010;-82
2022/09/11 15:27:00;;;;;;;6.07;2.90;;;;;;;;;;7370811;19;20014;-82
2022/09/11 15:29:26;;;;;;;6.87;2.90;;;;;;;;;;7378819;19;20055;-82
2022/09/11 15:31:52;;;;;;;5.85;2.70;;;;;;;;;;7378492;19;20263;-81
2022/09/11 15:34:18;;;;;;;4.53;2.50;;;;;;;;;;7369577;19;20010;-81
2022/09/11 15:36:43;;;;;;;6.35;2.50;;;;;;;;;;7373865;19;20033;-81
2022/09/11 15:39:10;;;;;;;6.63;2.47;;;;;;;;;;7378306;19;20011;-81
2022/09/11 15:41:36;;;;;;;5.53;2.72;;;;;;;;;;7382391;19;20027;-81
2022/09/11 15:44:07;;;;;;;7.25;2.80;;;;;;;;;;7383610;19;20769;-82
2022/09/11 15:46:33;;;;;;;6.47;2.28;;;;;;;;;;7381697;19;20010;-81
2022/09/11 15:48:58;;;;;;;5.45;2.63;;;;;;;;;;7384204;19;20555;-82
2022/09/11 15:51:24;;;;;;;8.30;3.10;;;;;;;;;;7365312;19;20056;-81
2022/09/11 15:53:49;;;;;;;5.13;2.53;;;;;;;;;;7378402;19;20007;-82
2022/09/11 15:56:15;;;;;;;5.90;2.42;;;;;;;;;;7372043;19;20255;-81
2022/09/11 15:58:42;;;;;;;7.78;3.20;;;;;;;;;;7381750;19;20014;-81
2022/09/11 16:01:34;;;;;;;5.53;2.80;;;;;;;;;;7385491;19;20010;-82
2022/09/11 16:04:01;;;;;;;7.63;2.90;;;;;;;;;;7371755;19;20018;-81
2022/09/11 16:06:28;;;;;;;6.35;3.30;;;;;;;;;;7378282;19;20035;-81
2022/09/11 16:08:57;;;;;;;5.60;2.90;;;;;;;;;;7384662;19;20011;-81
2022/09/11 16:11:23;;;;;;;6.82;3.13;;;;;;;;;;7383961;19;20032;-82
2022/09/11 16:13:49;;;;;;;5.30;3.10;;;;;;;;;;7382288;19;20002;-81
2022/09/11 16:16:14;;;;;;;6.82;3.42;;;;;;;;;;7378598;19;22296;-81
2022/09/11 16:18:41;;;;;;;11.57;3.25;;;;;;;;;;7377103;19;20007;-81
2022/09/11 16:21:06;;;;;;;6.30;3.00;;;;;;;;;;7369183;19;20984;-81
2022/09/11 16:23:32;;;;;;;7.60;2.95;;;;;;;;;;7367774;19;20007;-82
2022/09/11 16:26:00;;;;;;;6.38;2.90;;;;;;;;;;7378552;19;20097;-81
2022/09/11 16:28:25;;;;;;;7.40;3.17;;;;;;;;;;7378446;19;20039;-81
2022/09/11 16:30:51;;;;;;;6.73;3.27;;;;;;;;;;7378351;19;20018;-81
2022/09/11 16:33:16;;;;;;;5.10;2.80;;;;;;;;;;7377159;19;20017;-81
2022/09/11 16:35:42;;;;;;;8.80;3.03;;;;;;;;;;7379794;19;20443;-81
2022/09/11 16:38:07;;;;;;;6.85;2.83;;;;;;;;;;7366325;19;20014;-81
2022/09/11 16:40:34;;;;;;;7.85;3.42;;;;;;;;;;7382140;19;20340;-81
2022/09/11 16:42:59;;;;;;;6.10;3.42;;;;;;;;;;7376932;19;20525;-81
2022/09/11 16:45:24;;;;;;;5.43;3.42;;;;;;;;;;7370243;19;20470;-81
2022/09/11 16:47:50;;;;;;;6.17;3.60;;;;;;;;;;7382001;19;20014;-81
2022/09/11 16:50:16;;;;;;;6.80;4.28;;;;;;;;;;7385554;19;20007;-81
2022/09/11 16:52:41;;;;;;;8.27;3.78;;;;;;;;;;7377487;19;20090;-81
2022/09/11 16:55:08;;;;;;;9.27;4.00;;;;;;;;;;7384639;19;20033;-81
2022/09/11 16:57:33;;;;;;;7.28;3.60;;;;;;;;;;7383593;19;21105;-81
2022/09/11 16:59:58;;;;;;;10.25;3.55;;;;;;;;;;7376352;19;20166;-81
2022/09/11 17:02:24;;;;;;;6.27;3.67;;;;;;;;;;7381228;19;20010;-81
2022/09/11 17:04:49;;;;;;;7.15;3.38;;;;;;;;;;7366642;19;20729;-82
2022/09/11 17:07:15;;;;;;;7.10;3.40;;;;;;;;;;7373992;19;20906;-81
2022/09/11 17:09:42;;;;;;;7.35;3.67;;;;;;;;;;7385584;19;20007;-81
2022/09/11 17:12:08;;;;;;;7.25;3.92;;;;;;;;;;7380651;19;20130;-81
2022/09/11 17:14:34;;;;;;;9.75;3.50;;;;;;;;;;7378079;19;20074;-82
2022/09/11 17:16:59;;;;;;;8.98;3.40;;;;;;;;;;7379653;19;20006;-82
2022/09/11 17:19:24;;;;;;;7.43;3.37;;;;;;;;;;7371310;19;20025;-82
2022/09/11 17:21:50;;;;;;;5.60;3.30;;;;;;;;;;7375555;19;20003;-82
2022/09/11 17:24:19;;;;;;;6.82;3.60;;;;;;;;;;7373358;19;20044;-82
2022/09/11 17:26:45;;;;;;;6.22;3.85;;;;;;;;;;7369519;19;20014;-82
2022/09/11 17:29:10;;;;;;;6.55;3.65;;;;;;;;;;7371495;19;20007;-82
2022/09/11 17:31:35;;;;;;;8.03;4.10;;;;;;;;;;7382934;19;20042;-81
2022/09/11 17:34:01;;;;;;;7.63;3.70;;;;;;;;;;7381470;19;20007;-81
2022/09/11 17:36:26;;;;;;;8.13;3.70;;;;;;;;;;7372802;19;19998;-81
2022/09/11 17:38:51;;;;;;;7.05;3.80;;;;;;;;;;7379195;19;20474;-82
2022/09/11 17:41:17;;;;;;;8.30;3.83;;;;;;;;;;7370957;19;20002;-82
2022/09/11 17:43:42;;;;;;;8.30;3.63;;;;;;;;;;7377265;19;20115;-82
2022/09/11 17:46:09;;;;;;;9.85;4.22;;;;;;;;;;7363379;19;20010;-83
2022/09/11 17:48:35;;;;;;;7.53;3.85;;;;;;;;;;7370777;19;20288;-82
2022/09/11 17:51:04;;;;;;;6.53;3.47;;;;;;;;;;7376304;19;22366;-82
2022/09/11 17:53:31;;;;;;;8.75;4.28;;;;;;;;;;7375550;19;20018;-82
2022/09/11 17:56:00;;;;;;;8.63;3.95;;;;;;;;;;7378609;19;20031;-82
2022/09/11 17:58:28;;;;;;;9.10;3.88;;;;;;;;;;7377583;19;20473;-81
2022/09/11 18:00:53;;;;;;;7.90;3.80;;;;;;;;;;7373788;19;20069;-81
2022/09/11 18:03:21;;;;;;;7.05;3.85;;;;;;;;;;7379629;19;20006;-81
2022/09/11 18:05:46;;;;;;;9.27;3.80;;;;;;;;;;7375120;19;20018;-81
2022/09/11 18:08:11;;;;;;;10.17;4.17;;;;;;;;;;7358730;19;20029;-82
2022/09/11 18:10:36;;;;;;;8.00;4.23;;;;;;;;;;7378876;19;20015;-82
2022/09/11 18:13:02;;;;;;;6.47;4.28;;;;;;;;;;7378792;19;20011;-81
2022/09/11 18:15:27;;;;;;;7.53;4.30;;;;;;;;;;7372607;19;20014;-81
2022/09/11 18:17:52;;;;;;;13.40;4.70;;;;;;;;;;7371546;19;20074;-81
2022/09/11 18:20:18;;;;;;;7.97;4.53;;;;;;;;;;7379291;19;20034;-81
2022/09/11 18:22:44;;;;;;;8.75;4.50;;;;;;;;;;7372608;19;20533;-81
2022/09/11 18:25:09;;;;;;;8.30;4.78;;;;;;;;;;7370114;19;20066;-82
2022/09/11 18:27:34;;;;;;;8.53;4.70;;;;;;;;;;7376511;19;20038;-82
2022/09/11 18:29:59;;;;;;;8.60;4.13;;;;;;;;;;7364055;19;20100;-83
2022/09/11 18:32:25;;;;;;;9.25;4.85;;;;;;;;;;7370831;19;20459;-81
2022/09/11 18:34:50;;;;;;;7.63;4.63;;;;;;;;;;7371641;19;20059;-83
2022/09/11 18:37:16;;;;;;;7.73;4.60;;;;;;;;;;7362059;19;20011;-82
2022/09/11 18:39:41;;;;;;;10.23;4.45;;;;;;;;;;7375962;19;20263;-82
2022/09/11 18:42:06;;;;;;;9.27;4.28;;;;;;;;;;7372481;19;20457;-82
2022/09/11 18:44:31;;;;;;;7.38;4.22;;;;;;;;;;7366436;19;20024;-82
2022/09/11 18:46:57;;;;;;;11.05;4.43;;;;;;;;;;7361121;19;20071;-82
2022/09/11 18:49:23;;;;;;;8.30;4.88;;;;;;;;;;7365448;19;20010;-80
2022/09/11 18:51:48;;;;;;;8.73;4.40;;;;;;;;;;7358611;19;20006;-80
2022/09/11 18:54:16;;;;;;;8.98;4.97;;;;;;;;;;7368348;19;20011;-80
2022/09/11 18:56:42;;;;;;;14.45;5.68;;;;;;;;;;7366336;19;20451;-80
2022/09/11 18:59:08;;;;;;;7.43;4.60;;;;;;;;;;7360469;19;20010;-80
2022/09/11 19:01:33;;;;;;;9.48;5.47;;;;;;;;;;7375816;19;20575;-79
2022/09/11 19:03:59;;;;;;;13.90;4.53;;;;;;;;;;7348667;19;20098;-79
2022/09/11 19:06:25;;;;;;;11.18;4.63;;;;;;;;;;7366157;19;20331;-82
2022/09/11 19:08:51;;;;;;;7.57;4.45;;;;;;;;;;7370507;19;20422;-80
2022/09/11 19:11:27;;;;;;;8.68;4.47;;;;;;;;;;7364208;19;20061;-79
2022/09/11 19:13:53;;;;;;;7.50;4.40;;;;;;;;;;7375964;19;20022;-80
2022/09/11 19:16:19;;;;;;;9.95;4.75;;;;;;;;;;7376871;19;20027;-80
2022/09/11 19:18:44;;;;;;;11.60;5.07;;;;;;;;;;7363902;19;20020;-79
2022/09/11 19:21:14;;;;;;;8.47;4.93;;;;;;;;;;7239411;19;20015;-79
2022/09/11 19:23:40;;;;;;;8.70;4.85;;;;;;;;;;7118668;19;71363;-79
2022/09/11 19:26:07;;;;;;;8.93;5.50;;;;;;;;;;7337273;19;20014;-82
2022/09/11 19:28:36;;;;;;;7.97;5.05;;;;;;;;;;7355672;19;20003;-79
2022/09/11 19:31:02;;;;;;;7.82;4.80;;;;;;;;;;7348601;19;20475;-83
2022/09/11 19:33:28;;;;;;;11.88;4.72;;;;;;;;;;7365712;19;20035;-81
2022/09/11 19:36:02;;;;;;;9.88;4.97;;;;;;;;;;7365918;19;20040;-79
2022/09/11 19:38:28;;;;;;;9.75;5.00;;;;;;;;;;7361309;19;20019;-80
2022/09/11 19:40:53;;;;;;;10.93;5.20;;;;;;;;;;7362072;19;20053;-80
2022/09/11 19:43:23;;;;;;;10.20;4.67;;;;;;;;;;7355621;19;20627;-81
2022/09/11 19:45:59;;;;;;;13.30;5.50;;;;;;;;;;7350690;19;20291;-80
2022/09/11 19:48:24;;;;;;;11.88;5.28;;;;;;;;;;7357222;19;20016;-80
2022/09/11 19:50:50;;;;;;;8.85;4.97;;;;;;;;;;7350041;19;20033;-80
2022/09/11 19:53:15;;;;;;;7.27;4.60;;;;;;;;;;7366479;19;20010;-80
2022/09/11 19:55:41;;;;;;;9.05;5.70;;;;;;;;;;7367768;19;20007;-78
2022/09/11 19:58:06;;;;;;;13.23;6.10;;;;;;;;;;7367143;19;20139;-80
2022/09/11 20:00:33;;;;;;;10.63;6.20;;;;;;;;;;7356392;19;20090;-80
2022/09/11 20:02:59;;;;;;;11.65;6.45;;;;;;;;;;7364536;19;20275;-79
2022/09/11 20:05:24;;;;;;;14.20;8.23;;;;;;;;;;7364527;19;20017;-82
2022/09/11 20:07:49;;;;;;;11.95;7.95;;;;;;;;;;7369760;19;20002;-78
2022/09/11 20:10:14;;;;;;;15.73;7.73;;;;;;;;;;7342189;19;20014;-82
2022/09/11 20:12:39;;;;;;;13.40;7.40;;;;;;;;;;7375694;19;20020;-83
2022/09/11 20:15:05;;;;;;;14.03;8.63;;;;;;;;;;7352332;19;20010;-81
2022/09/11 20:17:31;;;;;;;13.60;8.40;;;;;;;;;;7373260;19;20283;-81
2022/09/11 20:19:56;;;;;;;13.07;9.43;;;;;;;;;;7376888;19;20058;-80
2022/09/11 20:22:23;;;;;;;12.82;8.63;;;;;;;;;;7360729;19;20018;-81
2022/09/11 20:24:48;;;;;;;12.00;7.40;;;;;;;;;;7376158;19;20678;-79
2022/09/11 20:27:14;;;;;;;20.80;8.65;;;;;;;;;;7371530;19;20015;-80
2022/09/11 20:29:40;;;;;;;12.05;7.22;;;;;;;;;;7363158;19;20013;-82
2022/09/11 20:32:06;;;;;;;10.25;7.30;;;;;;;;;;7373507;19;20006;-81
2022/09/11 20:34:31;;;;;;;14.82;8.65;;;;;;;;;;7360138;19;20050;-79
2022/09/11 20:36:58;;;;;;;11.47;7.80;;;;;;;;;;7354130;19;20014;-80
2022/09/11 20:39:24;;;;;;;13.30;8.45;;;;;;;;;;7370917;19;20267;-80
2022/09/11 20:41:49;;;;;;;20.63;9.15;;;;;;;;;;7367237;19;20071;-81
2022/09/11 20:44:14;;;;;;;15.10;8.80;;;;;;;;;;7375426;19;20010;-79
2022/09/11 20:46:40;;;;;;;14.27;8.63;;;;;;;;;;7381480;19;20486;-80
2022/09/11 20:49:05;;;;;;;13.35;8.73;;;;;;;;;;7378515;19;20474;-80
2022/09/11 20:51:30;;;;;;;13.50;8.20;;;;;;;;;;7358491;19;20013;-81
2022/09/11 20:53:56;;;;;;;14.65;9.05;;;;;;;;;;7355418;19;20757;-80
2022/09/11 20:56:22;;;;;;;11.77;7.63;;;;;;;;;;7375563;19;20006;-80
2022/09/11 20:58:47;;;;;;;13.73;7.85;;;;;;;;;;7376293;19;20337;-80
2022/09/11 21:01:14;;;;;;;15.25;8.52;;;;;;;;;;7363857;19;20006;-80
2022/09/11 21:03:49;;;;;;;15.13;8.27;;;;;;;;;;7377696;19;20028;-80
2022/09/11 21:06:15;;;;;;;15.77;9.45;;;;;;;;;;7372191;19;20494;-80
2022/09/11 21:08:41;;;;;;;14.48;9.55;;;;;;;;;;7375733;19;20035;-80
2022/09/11 21:11:06;;;;;;;17.30;10.02;;;;;;;;;;7376197;19;20444;-80
2022/09/11 21:13:36;;;;;;;13.88;8.70;;;;;;;;;;7379952;19;20412;-81
2022/09/11 21:16:03;;;;;;;13.65;9.65;;;;;;;;;;7371576;19;20042;-80
2022/09/11 21:18:28;;;;;;;13.73;9.18;;;;;;;;;;7359613;19;20363;-82
2022/09/11 21:20:54;;;;;;;18.48;11.45;;;;;;;;;;7360267;19;20029;-80
2022/09/11 21:23:19;;;;;;;14.68;9.30;;;;;;;;;;7354810;19;20338;-81
2022/09/11 21:25:44;;;;;;;13.75;9.43;;;;;;;;;;7368047;19;19998;-81
2022/09/11 21:28:09;;;;;;;17.10;9.53;;;;;;;;;;7365269;19;20007;-79
2022/09/11 21:30:36;;;;;;;17.07;9.60;;;;;;;;;;7365667;19;20033;-81
2022/09/11 21:33:01;;;;;;;13.32;9.55;;;;;;;;;;7362817;19;19999;-81
2022/09/11 21:35:26;;;;;;;15.93;9.10;;;;;;;;;;7348332;19;20016;-84
2022/09/11 21:37:51;;;;;;;12.13;8.43;;;;;;;;;;7346283;19;20077;-83
2022/09/11 21:40:17;;;;;;;13.63;8.20;;;;;;;;;;7359343;19;20009;-82
2022/09/11 21:42:42;;;;;;;14.70;9.20;;;;;;;;;;7372901;19;20656;-81
2022/09/11 21:45:07;;;;;;;12.98;8.02;;;;;;;;;;7349219;19;20108;-79
2022/09/11 21:47:33;;;;;;;12.82;8.90;;;;;;;;;;7365219;19;20021;-78
2022/09/11 21:49:58;;;;;;;15.63;9.17;;;;;;;;;;7372464;19;20459;-81
2022/09/11 21:52:23;;;;;;;18.85;9.25;;;;;;;;;;7361826;19;20259;-80
2022/09/11 21:54:53;;;;;;;15.00;9.13;;;;;;;;;;7368238;19;20013;-82
2022/09/11 21:57:19;;;;;;;16.02;9.57;;;;;;;;;;7350723;19;20014;-82
2022/09/11 21:59:44;;;;;;;14.50;8.70;;;;;;;;;;7370990;19;20385;-81
2022/09/11 22:02:10;;;;;;;12.98;8.85;;;;;;;;;;7372281;19;20006;-81
2022/09/11 22:04:35;;;;;;;14.02;10.35;;;;;;;;;;7372230;19;20466;-82
2022/09/11 22:07:01;;;;;;;20.50;10.77;;;;;;;;;;7371461;19;20036;-79
2022/09/11 22:09:27;;;;;;;17.25;10.25;;;;;;;;;;7370248;19;20007;-81
2022/09/11 22:11:52;;;;;;;18.02;10.07;;;;;;;;;;7365167;19;20038;-81
2022/09/11 22:14:18;;;;;;;12.90;9.50;;;;;;;;;;7371098;19;20454;-79
2022/09/11 22:16:44;;;;;;;16.48;10.25;;;;;;;;;;7372421;19;20043;-81
2022/09/11 22:19:09;;;;;;;17.80;10.73;;;;;;;;;;7362366;19;19998;-82
2022/09/11 22:21:35;;;;;;;14.75;10.90;;;;;;;;;;7366118;19;20003;-81
2022/09/11 22:24:01;;;;;;;12.57;9.68;;;;;;;;;;7378175;19;20070;-79
2022/09/11 22:26:28;;;;;;;14.77;11.00;;;;;;;;;;7368925;19;20134;-81
2022/09/11 22:28:54;;;;;;;14.38;9.90;;;;;;;;;;7373611;19;20042;-81
2022/09/11 22:31:21;;;;;;;17.00;10.13;;;;;;;;;;7368595;19;20014;-82
2022/09/11 22:33:46;;;;;;;17.45;9.45;;;;;;;;;;7368714;19;20035;-81
2022/09/11 22:36:16;;;;;;;13.23;9.73;;;;;;;;;;7372529;19;20011;-81
2022/09/11 22:38:41;;;;;;;14.38;9.80;;;;;;;;;;7374415;19;20042;-81
2022/09/11 22:41:07;;;;;;;16.60;10.85;;;;;;;;;;7374958;19;20007;-83
2022/09/11 22:43:32;;;;;;;19.95;11.48;;;;;;;;;;7374864;19;20006;-82
2022/09/11 22:45:57;;;;;;;14.90;11.30;;;;;;;;;;7369249;19;20010;-82
2022/09/11 22:48:22;;;;;;;18.98;10.77;;;;;;;;;;7361134;19;20463;-81
2022/09/11 22:50:48;;;;;;;14.00;10.48;;;;;;;;;;7363997;19;20007;-81
2022/09/11 22:53:13;;;;;;;21.70;10.65;;;;;;;;;;7374692;19;20009;-81
2022/09/11 22:55:45;;;;;;;16.42;10.10;;;;;;;;;;7363405;19;20010;-83
2022/09/11 22:58:11;;;;;;;14.75;9.63;;;;;;;;;;7369172;19;20067;-82
2022/09/11 23:00:36;;;;;;;15.02;10.20;;;;;;;;;;7366072;19;20879;-82
2022/09/11 23:03:02;;;;;;;17.67;11.75;;;;;;;;;;7358462;19;20027;-82
2022/09/11 23:08:11;;;;;;;20.58;11.07;;;;;;;;;;7365759;19;20724;-79
2022/09/11 23:10:40;;;;;;;19.17;12.32;;;;;;;;;;7360539;19;20011;-80
2022/09/11 23:13:05;;;;;;;18.50;11.40;;;;;;;;;;7369226;19;20041;-80
2022/09/11 23:15:30;;;;;;;16.07;10.83;;;;;;;;;;7369051;19;20364;-81
2022/09/11 23:17:55;;;;;;;16.38;10.90;;;;;;;;;;7357020;19;20262;-83
2022/09/11 23:20:21;;;;;;;15.52;11.02;;;;;;;;;;7370639;19;20014;-81
2022/09/11 23:22:46;;;;;;;17.73;12.00;;;;;;;;;;7359760;19;20499;-80
2022/09/11 23:25:12;;;;;;;17.33;11.35;;;;;;;;;;7368132;19;20011;-81
2022/09/11 23:27:37;;;;;;;18.27;10.85;;;;;;;;;;7366725;19;20007;-81
2022/09/11 23:30:03;;;;;;;17.23;11.20;;;;;;;;;;7368849;19;20608;-80
2022/09/11 23:32:28;;;;;;;15.07;10.95;;;;;;;;;;7348346;19;20007;-82
2022/09/11 23:34:53;;;;;;;18.10;11.43;;;;;;;;;;7368653;19;20007;-81
2022/09/11 23:37:18;;;;;;;18.03;11.50;;;;;;;;;;7356315;19;20276;-81
2022/09/11 23:39:44;;;;;;;16.87;11.03;;;;;;;;;;7360349;19;21151;-82
2022/09/11 23:42:09;;;;;;;21.98;12.85;;;;;;;;;;7357354;19;20244;-83
2022/09/11 23:44:34;;;;;;;17.67;12.33;;;;;;;;;;7358230;19;20172;-82
2022/09/11 23:47:01;;;;;;;18.13;12.80;;;;;;;;;;7342416;19;20267;-82
2022/09/11 23:49:26;;;;;;;23.95;14.50;;;;;;;;;;7370326;19;20263;-80
2022/09/11 23:51:51;;;;;;;23.17;15.20;;;;;;;;;;7370140;19;20009;-81
2022/09/11 23:54:16;;;;;;;20.33;14.17;;;;;;;;;;7368772;19;20019;-82
2022/09/11 23:56:41;;;;;;;21.77;14.90;;;;;;;;;;7381045;19;20006;-80
2022/09/11 23:59:06;;;;;;;18.73;14.05;;;;;;;;;;7365245;19;20260;-81
